createdAt,value
2022-11-08T00:01:35.841Z,98080.38
2022-11-08T00:04:11.719Z,98080.38
2022-11-08T00:06:54.970Z,98086.84
2022-11-08T00:09:37.717Z,98080.06
2022-11-08T00:12:21.518Z,98091.88
2022-11-08T00:14:51.663Z,98083.38
2022-11-08T00:17:24.876Z,98083.03
2022-11-08T00:19:57.995Z,98081.47
2022-11-08T00:22:28.443Z,98085.25
2022-11-08T00:24:58.483Z,98073.25
2022-11-08T00:27:29.277Z,98077.03
2022-11-08T00:29:59.282Z,98066.44
2022-11-08T00:32:29.955Z,98071.94
2022-11-08T00:35:02.570Z,98071.13
2022-11-08T00:37:32.548Z,98070.97
2022-11-08T00:40:02.561Z,98060.97
2022-11-08T00:42:32.623Z,98066.97
2022-11-08T00:45:02.869Z,98059.53
2022-11-08T00:47:33.765Z,98059.69
2022-11-08T00:50:07.234Z,98054.19
2022-11-08T00:52:37.229Z,98056.06
2022-11-08T00:55:08.690Z,98064.84
2022-11-08T00:57:57.921Z,98053.03
2022-11-08T01:00:29.125Z,98052.41
2022-11-08T01:03:11.368Z,98049.66
2022-11-08T01:05:44.557Z,98048.44
2022-11-08T01:08:16.738Z,98056.09
2022-11-08T01:10:49.622Z,98050.88
2022-11-08T01:13:21.437Z,98048.81
2022-11-08T01:15:52.086Z,98040.91
2022-11-08T01:18:22.373Z,98045.63
2022-11-08T01:20:55.062Z,98048.13
2022-11-08T01:23:25.160Z,98046.88
2022-11-08T01:25:55.250Z,98043.06
2022-11-08T01:28:25.571Z,98033.56
2022-11-08T01:30:55.721Z,98030.41
2022-11-08T01:33:25.715Z,98023.13
2022-11-08T01:35:58.320Z,98023.13
2022-11-08T01:38:29.185Z,98025.28
2022-11-08T01:40:59.278Z,98022.09
2022-11-08T01:43:46.268Z,98023.94
2022-11-08T01:46:36.359Z,98021.72
2022-11-08T01:49:31.359Z,98020.19
2022-11-08T01:52:25.869Z,98017.09
2022-11-08T01:55:09.076Z,98001.47
2022-11-08T01:57:50.034Z,98004.50
2022-11-08T02:00:21.790Z,98002.47
2022-11-08T02:03:00.929Z,97999.69
2022-11-08T02:05:34.427Z,97990.09
2022-11-08T02:08:17.819Z,97979.31
2022-11-08T02:10:53.930Z,97978.09
2022-11-08T02:13:27.859Z,97964.69
2022-11-08T02:15:58.905Z,97972.22
2022-11-08T02:18:32.502Z,97977.03
2022-11-08T02:21:14.437Z,97972.72
2022-11-08T02:23:50.344Z,97972.22
2022-11-08T02:26:25.597Z,97969.53
2022-11-08T02:28:55.731Z,97958.94
2022-11-08T02:31:25.801Z,97954.22
2022-11-08T02:33:56.236Z,97956.44
2022-11-08T02:36:28.331Z,97952.69
2022-11-08T02:39:01.200Z,97950.53
2022-11-08T02:41:31.370Z,97951.16
2022-11-08T02:44:01.403Z,97942.94
2022-11-08T02:46:31.355Z,97940.69
2022-11-08T02:49:01.353Z,97935.47
2022-11-08T02:51:31.346Z,97931.78
2022-11-08T02:54:04.013Z,97933.06
2022-11-08T02:56:34.519Z,97927.06
2022-11-08T02:59:06.163Z,97928.50
2022-11-08T03:01:36.302Z,97929.41
2022-11-08T03:04:06.672Z,97931.19
2022-11-08T03:06:36.882Z,97924.53
2022-11-08T03:09:10.201Z,97923.09
2022-11-08T03:11:40.421Z,97919.97
2022-11-08T03:14:10.692Z,97915.09
2022-11-08T03:16:40.728Z,97921.41
2022-11-08T03:19:11.797Z,97917.16
2022-11-08T03:21:41.899Z,97918.97
2022-11-08T03:24:15.051Z,97907.41
2022-11-08T03:26:45.162Z,97923.78
2022-11-08T03:29:15.371Z,97917.59
2022-11-08T03:31:45.439Z,97924.38
2022-11-08T03:34:15.574Z,97926.72
2022-11-08T03:36:45.876Z,97921.50
2022-11-08T03:39:18.520Z,97913.16
2022-11-08T03:41:48.668Z,97924.69
2022-11-08T03:44:18.647Z,97921.84
2022-11-08T03:46:48.689Z,97921.03
2022-11-08T03:49:18.775Z,97917.97
2022-11-08T03:51:48.853Z,97920.78
2022-11-08T03:54:21.591Z,97922.88
2022-11-08T03:56:51.716Z,97924.69
2022-11-08T03:59:21.877Z,97916.28
2022-11-08T04:01:51.962Z,97919.75
2022-11-08T04:04:22.210Z,97913.41
2022-11-08T04:06:52.252Z,97917.06
2022-11-08T04:09:24.915Z,97911.44
2022-11-08T04:12:07.407Z,97905.94
2022-11-08T04:14:49.886Z,97913.25
2022-11-08T04:17:19.948Z,97912.25
2022-11-08T04:20:02.483Z,97916.47
2022-11-08T04:22:32.480Z,97910.06
2022-11-08T04:25:05.100Z,97912.63
2022-11-08T04:27:35.164Z,97918.44
2022-11-08T04:30:05.392Z,97925.22
2022-11-08T04:32:36.465Z,97916.66
2022-11-08T04:35:06.709Z,97918.81
2022-11-08T04:37:36.712Z,97918.69
2022-11-08T04:40:11.914Z,97910.28
2022-11-08T04:42:46.429Z,97910.78
2022-11-08T04:45:16.617Z,97903.63
2022-11-08T04:47:48.959Z,97905.63
2022-11-08T04:50:19.775Z,97908.66
2022-11-08T04:52:55.495Z,97905.72
2022-11-08T04:55:28.180Z,97890.34
2022-11-08T04:58:01.636Z,97891.50
2022-11-08T05:00:31.711Z,97892.03
2022-11-08T05:03:04.493Z,97887.88
2022-11-08T05:05:34.525Z,97878.22
2022-11-08T05:08:04.613Z,97874.69
2022-11-08T05:10:37.318Z,97880.66
2022-11-08T05:13:07.317Z,97874.41
2022-11-08T05:15:38.683Z,97873.69
2022-11-08T05:18:08.938Z,97870.22
2022-11-08T05:20:51.428Z,97855.84
2022-11-08T05:23:27.582Z,97856.88
2022-11-08T05:26:01.086Z,97860.41
2022-11-08T05:28:31.095Z,97868.59
2022-11-08T05:31:01.257Z,97870.84
2022-11-08T05:33:31.517Z,97871.81
2022-11-08T05:36:06.094Z,97878.06
2022-11-08T05:38:37.370Z,97880.38
2022-11-08T05:41:14.074Z,97883.44
2022-11-08T05:43:44.776Z,97872.16
2022-11-08T05:46:15.196Z,97866.44
2022-11-08T05:48:47.015Z,97859.25
2022-11-08T05:51:19.641Z,97852.06
2022-11-08T05:53:49.985Z,97856.59
2022-11-08T05:56:22.737Z,97865.81
2022-11-08T05:58:52.797Z,97862.09
2022-11-08T06:01:23.629Z,97861.28
2022-11-08T06:03:53.895Z,97868.00
2022-11-08T06:06:25.522Z,97863.09
2022-11-08T06:08:55.568Z,97867.72
2022-11-08T06:11:30.342Z,97867.19
2022-11-08T06:14:00.330Z,97864.84
2022-11-08T06:16:30.448Z,97862.22
2022-11-08T06:19:00.675Z,97860.09
2022-11-08T06:21:30.819Z,97863.41
2022-11-08T06:24:00.799Z,97862.75
2022-11-08T06:26:33.528Z,97866.44
2022-11-08T06:29:05.608Z,97854.78
2022-11-08T06:31:39.301Z,97854.44
2022-11-08T06:34:12.600Z,97855.38
2022-11-08T06:36:42.928Z,97855.28
2022-11-08T06:39:13.356Z,97860.03
2022-11-08T06:41:46.185Z,97857.28
2022-11-08T06:44:16.168Z,97863.75
2022-11-08T06:46:46.445Z,97864.25
2022-11-08T06:49:16.580Z,97871.34
2022-11-08T06:51:47.614Z,97865.16
2022-11-08T06:54:18.511Z,97874.50
2022-11-08T06:56:52.835Z,97866.38
2022-11-08T06:59:22.996Z,97865.16
2022-11-08T07:01:53.093Z,97865.63
2022-11-08T07:04:23.238Z,97858.13
2022-11-08T07:06:53.581Z,97861.13
2022-11-08T07:09:23.748Z,97859.44
2022-11-08T07:11:56.530Z,97867.41
2022-11-08T07:14:26.701Z,97859.22
2022-11-08T07:16:56.743Z,97864.84
2022-11-08T07:19:26.778Z,97864.97
2022-11-08T07:21:56.866Z,97865.53
2022-11-08T07:24:26.995Z,97873.63
2022-11-08T07:26:59.681Z,97876.69
2022-11-08T07:29:29.684Z,97881.13
2022-11-08T07:31:59.760Z,97885.88
2022-11-08T07:34:31.561Z,97884.63
2022-11-08T07:37:01.788Z,97896.47
2022-11-08T07:39:31.852Z,97898.19
2022-11-08T07:42:04.503Z,97903.41
2022-11-08T07:44:37.496Z,97887.78
2022-11-08T07:47:07.930Z,97891.09
2022-11-08T07:49:39.645Z,97890.94
2022-11-08T07:52:09.724Z,97887.44
2022-11-08T07:54:39.759Z,97889.97
2022-11-08T07:57:12.371Z,97881.91
2022-11-08T07:59:42.395Z,97866.75
2022-11-08T08:02:13.913Z,97865.34
2022-11-08T08:04:44.272Z,97846.25
2022-11-08T08:07:14.378Z,97825.13
2022-11-08T08:09:44.584Z,97818.66
2022-11-08T08:12:17.349Z,97818.81
2022-11-08T08:14:47.360Z,97811.38
2022-11-08T08:17:17.455Z,97827.63
2022-11-08T08:19:47.490Z,97832.69
2022-11-08T08:22:17.599Z,97827.75
2022-11-08T08:24:47.646Z,97833.84
2022-11-08T08:27:20.282Z,97834.03
2022-11-08T08:29:50.461Z,97841.75
2022-11-08T08:32:21.695Z,97857.28
2022-11-08T08:34:51.731Z,97868.34
2022-11-08T08:37:21.807Z,97874.66
2022-11-08T08:39:51.828Z,97881.00
2022-11-08T08:42:24.651Z,97886.41
2022-11-08T08:44:54.692Z,97872.94
2022-11-08T08:47:25.015Z,97871.28
2022-11-08T08:49:55.103Z,97871.19
2022-11-08T08:52:25.200Z,97875.34
2022-11-08T08:54:55.272Z,97877.13
2022-11-08T08:57:28.176Z,97865.09
2022-11-08T09:02:48.691Z,97855.25
2022-11-08T09:05:19.355Z,97859.59
2022-11-08T09:07:49.342Z,97857.03
2022-11-08T09:10:19.338Z,97873.00
2022-11-08T09:12:52.456Z,97879.03
2022-11-08T09:15:23.275Z,97876.81
2022-11-08T09:17:56.758Z,97875.25
2022-11-08T09:20:27.965Z,97878.69
2022-11-08T09:22:58.011Z,97889.72
2022-11-08T09:25:28.082Z,97891.47
2022-11-08T09:28:00.708Z,97894.44
2022-11-08T09:30:30.879Z,97906.78
2022-11-08T09:33:02.290Z,97904.75
2022-11-08T09:35:33.528Z,97897.75
2022-11-08T09:38:03.600Z,97895.16
2022-11-08T09:40:42.956Z,97893.06
2022-11-08T09:43:41.804Z,97895.41
2022-11-08T09:46:14.092Z,97907.56
2022-11-08T09:48:47.746Z,97899.69
2022-11-08T09:51:23.346Z,97899.91
2022-11-08T09:53:59.123Z,97902.00
2022-11-08T09:56:33.431Z,97894.19
2022-11-08T09:59:21.331Z,97894.63
2022-11-08T10:01:52.524Z,97894.16
2022-11-08T10:04:28.863Z,97892.69
2022-11-08T10:07:18.169Z,97898.75
2022-11-08T10:10:18.978Z,97898.94
2022-11-08T10:13:03.533Z,97899.50
2022-11-08T10:15:47.584Z,97891.31
2022-11-08T10:18:48.794Z,97889.94
2022-11-08T10:21:42.949Z,97888.78
2022-11-08T10:24:24.359Z,97887.69
2022-11-08T10:27:00.419Z,97890.38
2022-11-08T10:29:38.119Z,97893.88
2022-11-08T10:32:21.600Z,97884.13
2022-11-08T10:34:59.183Z,97882.38
2022-11-08T10:37:32.442Z,97878.53
2022-11-08T10:40:18.633Z,97880.31
2022-11-08T10:42:55.515Z,97884.81
2022-11-08T10:45:25.551Z,97874.53
2022-11-08T10:47:58.418Z,97872.53
2022-11-08T10:50:44.111Z,97863.50
2022-11-08T10:53:22.912Z,97862.56
2022-11-08T10:56:00.951Z,97860.56
2022-11-08T10:58:40.986Z,97860.00
2022-11-08T11:01:21.182Z,97863.03
2022-11-08T11:03:56.924Z,97862.03
2022-11-08T11:06:30.865Z,97852.59
2022-11-08T11:09:04.334Z,97858.56
2022-11-08T11:11:41.082Z,97851.38
2022-11-08T11:14:22.073Z,97847.03
2022-11-08T11:17:00.192Z,97849.59
2022-11-08T11:19:34.545Z,97844.66
2022-11-08T11:22:08.499Z,97843.81
2022-11-08T11:24:40.321Z,97841.06
2022-11-08T11:27:24.212Z,97844.06
2022-11-08T11:30:25.317Z,97841.16
2022-11-08T11:33:06.717Z,97831.28
2022-11-08T11:35:54.811Z,97836.13
2022-11-08T11:38:40.635Z,97829.38
2022-11-08T11:41:19.958Z,97824.94
2022-11-08T11:44:03.738Z,97814.16
2022-11-08T11:46:47.956Z,97813.19
2022-11-08T11:49:24.511Z,97809.28
2022-11-08T11:51:59.514Z,97813.31
2022-11-08T11:54:36.663Z,97811.88
2022-11-08T11:57:15.095Z,97812.34
2022-11-08T12:00:04.985Z,97802.53
2022-11-08T12:03:14.501Z,97803.16
2022-11-08T12:06:11.913Z,97798.28
2022-11-08T12:09:09.124Z,97800.34
2022-11-08T12:12:03.844Z,97802.25
2022-11-08T12:14:58.830Z,97798.09
2022-11-08T12:18:01.632Z,97796.13
2022-11-08T12:21:01.231Z,97807.63
2022-11-08T12:24:23.075Z,97810.41
2022-11-08T12:27:08.654Z,97806.69
2022-11-08T12:29:54.410Z,97803.09
2022-11-08T12:32:58.416Z,97794.56
2022-11-08T12:35:43.306Z,97795.13
2022-11-08T12:38:33.828Z,97785.50
2022-11-08T12:41:18.358Z,97775.47
2022-11-08T12:44:21.981Z,97771.94
2022-11-08T12:47:14.790Z,97771.00
2022-11-08T12:50:04.327Z,97772.41
2022-11-08T12:52:57.328Z,97769.13
2022-11-08T12:55:35.648Z,97764.09
2022-11-08T12:58:34.785Z,97762.59
2022-11-08T13:01:10.638Z,97766.44
2022-11-08T13:04:07.970Z,97761.19
2022-11-08T13:06:46.787Z,97759.72
2022-11-08T13:09:31.413Z,97761.78
2022-11-08T13:12:16.229Z,97753.06
2022-11-08T13:14:49.367Z,97757.28
2022-11-08T13:17:26.346Z,97753.72
2022-11-08T13:20:07.574Z,97745.94
2022-11-08T13:23:03.526Z,97750.69
2022-11-08T13:25:42.206Z,97749.66
2022-11-08T13:28:42.565Z,97754.88
2022-11-08T13:31:49.272Z,97741.41
2022-11-08T13:34:49.331Z,97736.06
2022-11-08T13:37:45.618Z,97737.31
2022-11-08T13:40:41.372Z,97736.06
2022-11-08T13:43:27.711Z,97747.16
2022-11-08T13:45:58.577Z,97743.41
2022-11-08T13:48:43.471Z,97738.06
2022-11-08T13:51:31.849Z,97739.53
2022-11-08T13:54:04.801Z,97743.00
2022-11-08T13:56:51.842Z,97742.50
2022-11-08T14:00:01.494Z,97741.47
2022-11-08T14:02:45.176Z,97742.97
2022-11-08T14:05:35.203Z,97742.44
2022-11-08T14:08:27.029Z,97734.50
2022-11-08T14:11:48.681Z,97745.63
2022-11-08T14:14:40.182Z,97743.28
2022-11-08T14:17:32.696Z,97733.00
2022-11-08T14:20:27.602Z,97734.69
2022-11-08T14:23:02.154Z,97731.34
2022-11-08T14:25:38.000Z,97722.53
2022-11-08T14:28:24.663Z,97729.50
2022-11-08T14:30:55.529Z,97731.97
2022-11-08T14:33:27.980Z,97730.69
2022-11-08T14:36:01.968Z,97733.63
2022-11-08T14:38:39.073Z,97742.56
2022-11-08T14:41:10.686Z,97732.63
2022-11-08T14:43:48.109Z,97741.34
2022-11-08T14:46:29.152Z,97736.63
2022-11-08T14:49:00.196Z,97736.75
2022-11-08T14:51:30.188Z,97740.50
2022-11-08T14:54:02.923Z,97739.00
2022-11-08T14:56:43.372Z,97733.25
2022-11-08T15:02:57.193Z,97726.38
2022-11-08T15:05:35.249Z,97727.97
2022-11-08T15:08:09.836Z,97723.84
2022-11-08T15:10:55.296Z,97720.66
2022-11-08T15:13:26.382Z,97724.38
2022-11-08T15:16:00.362Z,97723.81
2022-11-08T15:18:34.259Z,97717.47
2022-11-08T15:21:09.186Z,97709.63
2022-11-08T15:23:53.411Z,97705.41
2022-11-08T15:26:33.568Z,97704.91
2022-11-08T15:29:09.939Z,97713.25
2022-11-08T15:31:46.296Z,97707.72
2022-11-08T15:34:24.485Z,97714.75
2022-11-08T15:36:56.125Z,97706.28
2022-11-08T15:39:32.047Z,97703.97
2022-11-08T15:42:07.636Z,97702.84
2022-11-08T15:44:37.817Z,97703.84
2022-11-08T15:47:08.495Z,97699.72
2022-11-08T15:49:38.538Z,97697.22
2022-11-08T15:52:08.579Z,97701.22
2022-11-08T15:54:38.634Z,97711.25
2022-11-08T15:57:11.312Z,97707.94
2022-11-08T15:59:41.659Z,97703.75
2022-11-08T16:02:22.923Z,97698.69
2022-11-08T16:04:52.959Z,97704.25
2022-11-08T16:07:22.981Z,97715.25
2022-11-08T16:09:53.428Z,97714.91
2022-11-08T16:12:26.120Z,97715.13
2022-11-08T16:14:57.928Z,97714.56
2022-11-08T16:17:28.238Z,97710.66
2022-11-08T16:19:58.278Z,97718.34
2022-11-08T16:22:28.489Z,97717.16
2022-11-08T16:24:58.548Z,97714.38
2022-11-08T16:27:31.374Z,97714.19
2022-11-08T16:30:01.599Z,97709.91
2022-11-08T16:32:31.735Z,97710.94
2022-11-08T16:35:01.832Z,97721.69
2022-11-08T16:37:31.930Z,97714.22
2022-11-08T16:40:03.476Z,97720.91
2022-11-08T16:42:36.209Z,97707.41
2022-11-08T16:45:06.645Z,97715.03
2022-11-08T16:47:37.625Z,97718.78
2022-11-08T16:50:09.593Z,97715.44
2022-11-08T16:52:39.690Z,97717.19
2022-11-08T16:55:17.733Z,97718.19
2022-11-08T16:57:51.308Z,97719.34
2022-11-08T17:00:23.272Z,97714.03
2022-11-08T17:02:55.520Z,97718.16
2022-11-08T17:05:28.542Z,97709.53
2022-11-08T17:07:58.500Z,97717.38
2022-11-08T17:10:31.623Z,97712.28
2022-11-08T17:13:04.420Z,97708.56
2022-11-08T17:15:34.980Z,97706.78
2022-11-08T17:18:05.016Z,97708.16
2022-11-08T17:20:35.110Z,97719.53
2022-11-08T17:23:05.431Z,97716.44
2022-11-08T17:25:37.976Z,97725.25
2022-11-08T17:28:10.727Z,97724.69
2022-11-08T17:30:44.241Z,97731.53
2022-11-08T17:33:15.960Z,97728.38
2022-11-08T17:35:46.583Z,97739.75
2022-11-08T17:38:16.892Z,97736.25
2022-11-08T17:40:47.069Z,97739.75
2022-11-08T17:43:20.910Z,97735.22
2022-11-08T17:45:53.335Z,97736.59
2022-11-08T17:48:23.340Z,97742.88
2022-11-08T17:50:53.433Z,97741.91
2022-11-08T17:53:23.712Z,97740.13
2022-11-08T17:55:57.302Z,97741.34
2022-11-08T17:58:33.523Z,97738.59
2022-11-08T18:01:06.620Z,97734.44
2022-11-08T18:03:37.590Z,97735.81
2022-11-08T18:06:11.563Z,97733.84
2022-11-08T18:08:42.059Z,97734.03
2022-11-08T18:11:12.195Z,97730.28
2022-11-08T18:13:44.958Z,97733.00
2022-11-08T18:16:17.827Z,97731.19
2022-11-08T18:18:49.408Z,97726.72
2022-11-08T18:21:21.918Z,97728.03
2022-11-08T18:23:53.641Z,97727.03
2022-11-08T18:26:23.689Z,97722.28
2022-11-08T18:28:56.665Z,97717.59
2022-11-08T18:31:27.607Z,97720.91
2022-11-08T18:33:58.434Z,97731.44
2022-11-08T18:36:31.227Z,97733.19
2022-11-08T18:39:03.789Z,97725.22
2022-11-08T18:41:35.660Z,97728.53
2022-11-08T18:44:08.690Z,97727.34
2022-11-08T18:46:43.168Z,97733.19
2022-11-08T18:49:13.903Z,97737.44
2022-11-08T18:51:44.093Z,97739.00
2022-11-08T18:54:14.273Z,97730.97
2022-11-08T18:56:44.398Z,97724.66
2022-11-08T18:59:17.181Z,97727.88
2022-11-08T19:01:47.287Z,97735.63
2022-11-08T19:04:17.379Z,97732.88
2022-11-08T19:06:53.105Z,97739.91
2022-11-08T19:09:24.571Z,97740.63
2022-11-08T19:11:54.648Z,97747.09
2022-11-08T19:14:27.566Z,97746.56
2022-11-08T19:16:57.727Z,97751.63
2022-11-08T19:19:27.905Z,97756.16
2022-11-08T19:21:57.961Z,97746.66
2022-11-08T19:24:28.068Z,97744.59
2022-11-08T19:26:58.259Z,97742.09
2022-11-08T19:29:30.955Z,97740.00
2022-11-08T19:32:01.035Z,97742.19
2022-11-08T19:34:31.284Z,97743.47
2022-11-08T19:37:01.341Z,97731.84
2022-11-08T19:39:31.509Z,97731.66
2022-11-08T19:42:01.600Z,97733.41
2022-11-08T19:44:34.535Z,97733.00
2022-11-08T19:47:04.697Z,97728.72
2022-11-08T19:49:36.661Z,97735.78
2022-11-08T19:52:06.966Z,97732.09
2022-11-08T19:54:37.195Z,97731.09
2022-11-08T19:57:07.408Z,97730.66
2022-11-08T19:59:40.429Z,97727.94
2022-11-08T20:02:12.297Z,97713.88
2022-11-08T20:04:42.451Z,97720.91
2022-11-08T20:07:12.887Z,97735.75
2022-11-08T20:09:43.013Z,97735.19
2022-11-08T20:12:13.055Z,97735.78
2022-11-08T20:14:45.674Z,97733.03
2022-11-08T20:17:15.746Z,97738.94
2022-11-08T20:19:46.837Z,97746.38
2022-11-08T20:22:16.825Z,97745.59
2022-11-08T20:24:47.091Z,97749.13
2022-11-08T20:27:17.140Z,97750.72
2022-11-08T20:29:49.754Z,97754.22
2022-11-08T20:32:19.906Z,97750.69
2022-11-08T20:34:50.712Z,97751.47
2022-11-08T20:37:21.119Z,97760.06
2022-11-08T20:39:51.118Z,97763.63
2022-11-08T20:42:23.010Z,97763.63
2022-11-08T20:44:55.915Z,97754.22
2022-11-08T20:47:26.213Z,97762.44
2022-11-08T20:49:57.206Z,97763.44
2022-11-08T20:52:27.353Z,97764.59
2022-11-08T20:54:57.399Z,97760.88
2022-11-08T20:57:27.442Z,97760.06
2022-11-08T21:00:12.380Z,97757.72
2022-11-08T21:02:43.433Z,97746.38
2022-11-08T21:05:13.608Z,97753.41
2022-11-08T21:10:43.103Z,97759.78
2022-11-08T21:13:13.615Z,97752.09
2022-11-08T21:15:50.202Z,97755.81
2022-11-08T21:18:21.102Z,97758.16
2022-11-08T21:20:52.175Z,97735.22
2022-11-08T21:23:22.623Z,97747.72
2022-11-08T21:25:54.542Z,97738.69
2022-11-08T21:28:24.549Z,97743.41
2022-11-08T21:30:57.908Z,97736.75
2022-11-08T21:33:28.422Z,97739.09
2022-11-08T21:36:00.713Z,97743.78
2022-11-08T21:38:31.430Z,97741.41
2022-11-08T21:41:05.603Z,97744.94
2022-11-08T21:43:39.257Z,97738.91
2022-11-08T21:46:30.519Z,97743.78
2022-11-08T21:49:03.342Z,97737.53
2022-11-08T21:51:34.299Z,97727.75
2022-11-08T21:54:04.328Z,97728.59
2022-11-08T21:56:38.840Z,97735.00
2022-11-08T21:59:08.985Z,97745.00
2022-11-08T22:01:41.596Z,97750.41
2022-11-08T22:04:11.578Z,97748.47
2022-11-08T22:06:47.329Z,97740.84
2022-11-08T22:09:17.787Z,97742.22
2022-11-08T22:11:47.896Z,97743.16
2022-11-08T22:14:17.905Z,97746.63
2022-11-08T22:16:50.459Z,97747.16
2022-11-08T22:19:20.465Z,97746.31
2022-11-08T22:21:50.478Z,97758.19
2022-11-08T22:24:22.935Z,97751.50
2022-11-08T22:26:56.269Z,97758.34
2022-11-08T22:29:26.361Z,97763.97
2022-11-08T22:31:59.042Z,97763.06
2022-11-08T22:34:29.060Z,97764.47
2022-11-08T22:36:59.294Z,97766.03
2022-11-08T22:39:29.321Z,97764.41
2022-11-08T22:41:59.478Z,97769.75
2022-11-08T22:44:32.501Z,97762.78
2022-11-08T22:47:05.132Z,97761.22
2022-11-08T22:49:35.491Z,97760.50
2022-11-08T22:52:05.545Z,97760.81
2022-11-08T22:54:35.666Z,97757.59
2022-11-08T22:57:06.633Z,97751.25
2022-11-08T22:59:36.577Z,97757.19
2022-11-08T23:02:09.160Z,97747.59
2022-11-08T23:04:39.128Z,97758.00
2022-11-08T23:07:09.489Z,97752.53
2022-11-08T23:09:39.476Z,97747.13
2022-11-08T23:12:23.692Z,97750.47
2022-11-08T23:15:06.143Z,97747.47
2022-11-08T23:17:38.718Z,97739.06
2022-11-08T23:20:22.197Z,97740.03
2022-11-08T23:23:04.728Z,97735.34
2022-11-08T23:25:34.760Z,97735.72
2022-11-08T23:28:17.259Z,97730.88
2022-11-08T23:30:59.589Z,97728.75
2022-11-08T23:33:32.219Z,97732.28
2022-11-08T23:36:15.761Z,97726.84
2022-11-08T23:38:46.723Z,97728.81
2022-11-08T23:41:29.644Z,97733.94
2022-11-08T23:44:12.078Z,97733.34
2022-11-08T23:46:42.950Z,97740.00
2022-11-08T23:49:15.678Z,97737.69
2022-11-08T23:51:45.871Z,97737.91
2022-11-08T23:54:16.122Z,97744.03
2022-11-08T23:56:47.507Z,97743.47
2022-11-08T23:59:18.733Z,97745.03
